AEA06 LEMD-GCLA
Flight info
| Callsign | AEA06 |
|---|---|
| Flight time | N/A |
| Altitude | 31000 |
| Route | CCS DCT ELVAR/N0464F330 DCT BEXAL/N0462F350 UN866 KONBA |
| Aircraft | B738/M-SDE2E3FGHIRWXY/LB1 |
Departure
| Time | 2026-05-05 13:34 |
|---|---|
| Airport | Adolfo Suárez Madrid–Barajas Airport (LEMD) |
Arrival
| Time | N/A |
|---|---|
| Airport | La Palma Airport (GCLA) |
| Time | Latitude | Longitude | Altitude | Speed | Heading |
|---|---|---|---|---|---|
| 2026-05-05 13:20 | 40.47203 | -3.56848 | 1983 ft | 0 kts | 231° |
| 2026-05-05 13:24 | 40.47195 | -3.56865 | 1984 ft | 6 kts | 240° |
| 2026-05-05 13:25 | 40.47203 | -3.56917 | 1986 ft | 7 kts | 317° |
| 2026-05-05 13:25 | 40.47261 | -3.56921 | 1986 ft | 13 kts | 6° |
| 2026-05-05 13:25 | 40.47301 | -3.56901 | 1986 ft | 0 kts | 41° |
| 2026-05-05 13:25 | 40.47303 | -3.56899 | 1986 ft | 2 kts | 44° |
| 2026-05-05 13:26 | 40.47338 | -3.56847 | 1989 ft | 11 kts | 32° |
| 2026-05-05 13:26 | 40.47383 | -3.56861 | 1989 ft | 6 kts | 315° |
| 2026-05-05 13:26 | 40.47419 | -3.56899 | 1990 ft | 9 kts | 322° |
| 2026-05-05 13:26 | 40.47486 | -3.56969 | 1991 ft | 11 kts | 322° |
| 2026-05-05 13:27 | 40.47548 | -3.57032 | 1992 ft | 11 kts | 322° |
| 2026-05-05 13:27 | 40.47608 | -3.57094 | 1995 ft | 11 kts | 322° |
| 2026-05-05 13:27 | 40.47667 | -3.57154 | 1997 ft | 11 kts | 322° |
| 2026-05-05 13:27 | 40.47731 | -3.57220 | 1999 ft | 13 kts | 322° |
| 2026-05-05 13:28 | 40.47811 | -3.57302 | 2002 ft | 16 kts | 322° |
| 2026-05-05 13:28 | 40.47904 | -3.57398 | 2002 ft | 20 kts | 322° |
| 2026-05-05 13:28 | 40.48046 | -3.57542 | 2000 ft | 31 kts | 323° |
| 2026-05-05 13:28 | 40.48230 | -3.57727 | 1994 ft | 34 kts | 322° |
| 2026-05-05 13:29 | 40.48427 | -3.57914 | 1991 ft | 35 kts | 327° |
| 2026-05-05 13:29 | 40.48614 | -3.58048 | 2002 ft | 29 kts | 353° |
| 2026-05-05 13:29 | 40.48786 | -3.58050 | 2002 ft | 18 kts | 359° |
| 2026-05-05 13:29 | 40.48856 | -3.57993 | 2000 ft | 12 kts | 82° |
| 2026-05-05 13:30 | 40.48919 | -3.57925 | 1997 ft | 14 kts | 360° |
| 2026-05-05 13:30 | 40.49030 | -3.57930 | 1998 ft | 18 kts | 359° |
| 2026-05-05 13:30 | 40.49161 | -3.57909 | 1997 ft | 19 kts | 40° |
| 2026-05-05 13:30 | 40.49173 | -3.57773 | 1991 ft | 19 kts | 91° |
| 2026-05-05 13:31 | 40.49180 | -3.57612 | 1988 ft | 11 kts | 70° |
| 2026-05-05 13:31 | 40.49192 | -3.57575 | 1987 ft | 0 kts | 67° |
| 2026-05-05 13:31 | 40.49193 | -3.57570 | 1987 ft | 4 kts | 67° |
| 2026-05-05 13:31 | 40.49228 | -3.57476 | 1984 ft | 18 kts | 50° |
| 2026-05-05 13:32 | 40.49309 | -3.57453 | 1982 ft | 0 kts | 360° |
| 2026-05-05 13:33 | 40.49321 | -3.57453 | 1982 ft | 6 kts | 359° |
| 2026-05-05 13:33 | 40.49582 | -3.57457 | 1984 ft | 74 kts | 359° |
| 2026-05-05 13:33 | 40.50336 | -3.57463 | 1989 ft | 139 kts | 0° |
| 2026-05-05 13:34 | 40.51473 | -3.57431 | 2144 ft | 180 kts | 359° |
| 2026-05-05 13:34 | 40.52772 | -3.57327 | 2915 ft | 193 kts | 359° |
| 2026-05-05 13:34 | 40.54110 | -3.57267 | 3904 ft | 191 kts | 356° |
| 2026-05-05 13:34 | 40.55484 | -3.57511 | 4334 ft | 205 kts | 329° |
| 2026-05-05 13:35 | 40.56525 | -3.58733 | 4825 ft | 204 kts | 301° |
| 2026-05-05 13:35 | 40.57165 | -3.60386 | 5380 ft | 205 kts | 304° |
| 2026-05-05 13:35 | 40.58288 | -3.61615 | 5834 ft | 214 kts | 321° |
| 2026-05-05 13:35 | 40.59470 | -3.62836 | 6356 ft | 218 kts | 318° |
| 2026-05-05 13:36 | 40.60638 | -3.64114 | 6957 ft | 218 kts | 317° |
| 2026-05-05 13:36 | 40.61807 | -3.65401 | 7576 ft | 220 kts | 317° |
| 2026-05-05 13:36 | 40.62979 | -3.66705 | 8107 ft | 222 kts | 315° |
| 2026-05-05 13:36 | 40.63831 | -3.68378 | 8608 ft | 224 kts | 287° |
| 2026-05-05 13:37 | 40.64084 | -3.70453 | 8937 ft | 237 kts | 272° |
| 2026-05-05 13:37 | 40.64079 | -3.72641 | 9466 ft | 242 kts | 269° |
| 2026-05-05 13:37 | 40.64028 | -3.74869 | 10104 ft | 241 kts | 269° |
| 2026-05-05 13:37 | 40.63973 | -3.77070 | 10694 ft | 242 kts | 269° |
| 2026-05-05 13:38 | 40.63920 | -3.79307 | 11134 ft | 248 kts | 269° |
| 2026-05-05 13:38 | 40.63872 | -3.81580 | 11643 ft | 250 kts | 269° |
| 2026-05-05 13:38 | 40.63825 | -3.83876 | 12192 ft | 252 kts | 269° |
| 2026-05-05 13:38 | 40.63781 | -3.86191 | 12728 ft | 253 kts | 269° |
| 2026-05-05 13:39 | 40.63739 | -3.88494 | 13254 ft | 256 kts | 269° |
| 2026-05-05 13:39 | 40.63697 | -3.90863 | 13687 ft | 262 kts | 269° |
| 2026-05-05 13:39 | 40.63654 | -3.93272 | 14178 ft | 263 kts | 269° |
| 2026-05-05 13:39 | 40.63612 | -3.95675 | 14694 ft | 264 kts | 269° |
| 2026-05-05 13:40 | 40.63569 | -3.98108 | 15132 ft | 266 kts | 269° |
| 2026-05-05 13:40 | 40.63527 | -4.00542 | 15667 ft | 266 kts | 269° |
| 2026-05-05 13:40 | 40.63484 | -4.02990 | 16093 ft | 269 kts | 269° |
| 2026-05-05 13:40 | 40.63440 | -4.05471 | 16543 ft | 271 kts | 269° |
| 2026-05-05 13:41 | 40.63396 | -4.07955 | 17024 ft | 272 kts | 269° |
| 2026-05-05 13:41 | 40.63351 | -4.10452 | 17489 ft | 273 kts | 269° |
| 2026-05-05 13:41 | 40.63305 | -4.12964 | 17912 ft | 275 kts | 269° |
| 2026-05-05 13:41 | 40.63259 | -4.15460 | 18348 ft | 277 kts | 269° |
| 2026-05-05 13:42 | 40.63212 | -4.17997 | 18751 ft | 277 kts | 269° |
| 2026-05-05 13:42 | 40.63164 | -4.20540 | 19154 ft | 279 kts | 269° |
| 2026-05-05 13:42 | 40.63115 | -4.23098 | 19538 ft | 280 kts | 269° |
| 2026-05-05 13:42 | 40.63066 | -4.25668 | 19932 ft | 281 kts | 269° |
| 2026-05-05 13:43 | 40.63015 | -4.28240 | 20323 ft | 281 kts | 269° |
| 2026-05-05 13:43 | 40.62965 | -4.30820 | 20704 ft | 282 kts | 269° |
| 2026-05-05 13:43 | 40.62913 | -4.33414 | 21078 ft | 283 kts | 269° |
| 2026-05-05 13:43 | 40.62861 | -4.36010 | 21447 ft | 284 kts | 269° |
| 2026-05-05 13:44 | 40.62807 | -4.38619 | 21822 ft | 285 kts | 269° |
| 2026-05-05 13:44 | 40.62754 | -4.41240 | 22190 ft | 286 kts | 269° |
| 2026-05-05 13:44 | 40.62700 | -4.43855 | 22562 ft | 287 kts | 269° |
| 2026-05-05 13:44 | 40.62644 | -4.46493 | 22923 ft | 288 kts | 270° |
| 2026-05-05 13:45 | 40.62588 | -4.49134 | 23263 ft | 289 kts | 270° |
| 2026-05-05 13:45 | 40.62532 | -4.51748 | 23608 ft | 289 kts | 270° |
| 2026-05-05 13:45 | 40.62307 | -4.54381 | 23885 ft | 292 kts | 256° |
| 2026-05-05 13:45 | 40.61462 | -4.56834 | 24152 ft | 299 kts | 241° |
| 2026-05-05 13:46 | 40.60249 | -4.59072 | 24436 ft | 301 kts | 238° |
| 2026-05-05 13:46 | 40.58982 | -4.61271 | 24704 ft | 302 kts | 238° |
| 2026-05-05 13:46 | 40.57702 | -4.63475 | 24980 ft | 303 kts | 238° |
| 2026-05-05 13:46 | 40.56423 | -4.65685 | 25252 ft | 303 kts | 238° |
| 2026-05-05 13:47 | 40.55165 | -4.67871 | 25522 ft | 303 kts | 239° |
| 2026-05-05 13:47 | 40.53894 | -4.70091 | 25765 ft | 304 kts | 239° |
| 2026-05-05 13:47 | 40.52624 | -4.72315 | 26028 ft | 304 kts | 239° |
| 2026-05-05 13:47 | 40.51353 | -4.74542 | 26290 ft | 305 kts | 239° |
| 2026-05-05 13:48 | 40.50082 | -4.76770 | 26540 ft | 305 kts | 239° |
| 2026-05-05 13:48 | 40.48809 | -4.79003 | 26773 ft | 305 kts | 240° |
| 2026-05-05 13:48 | 40.47533 | -4.81240 | 27016 ft | 306 kts | 240° |
| 2026-05-05 13:48 | 40.46254 | -4.83482 | 27247 ft | 307 kts | 240° |
| 2026-05-05 13:49 | 40.44973 | -4.85720 | 27463 ft | 307 kts | 240° |
| 2026-05-05 13:49 | 40.43692 | -4.87961 | 27696 ft | 307 kts | 240° |
| 2026-05-05 13:49 | 40.42405 | -4.90210 | 27887 ft | 308 kts | 240° |
| 2026-05-05 13:49 | 40.41112 | -4.92467 | 28108 ft | 309 kts | 240° |
| 2026-05-05 13:50 | 40.39818 | -4.94723 | 28318 ft | 309 kts | 240° |
| 2026-05-05 13:50 | 40.38522 | -4.96982 | 28524 ft | 310 kts | 240° |
| 2026-05-05 13:50 | 40.37242 | -4.99211 | 28735 ft | 310 kts | 241° |
| 2026-05-05 13:50 | 40.35941 | -5.01476 | 28900 ft | 312 kts | 241° |
| 2026-05-05 13:51 | 40.34633 | -5.03754 | 29031 ft | 313 kts | 241° |
| 2026-05-05 13:51 | 40.33321 | -5.06036 | 29215 ft | 314 kts | 241° |
| 2026-05-05 13:51 | 40.32006 | -5.08321 | 29378 ft | 315 kts | 241° |
| 2026-05-05 13:51 | 40.30688 | -5.10611 | 29559 ft | 315 kts | 241° |
| 2026-05-05 13:52 | 40.29363 | -5.12910 | 29694 ft | 317 kts | 241° |
| 2026-05-05 13:52 | 40.28032 | -5.15214 | 29852 ft | 317 kts | 241° |
| 2026-05-05 13:52 | 40.26700 | -5.17521 | 29988 ft | 317 kts | 241° |
| 2026-05-05 13:52 | 40.25366 | -5.19833 | 30093 ft | 319 kts | 241° |
| 2026-05-05 13:53 | 40.22675 | -5.24490 | 30280 ft | 321 kts | 242° |
| 2026-05-05 13:53 | 40.21329 | -5.26814 | 30393 ft | 321 kts | 242° |
| 2026-05-05 13:53 | 40.19979 | -5.29143 | 30513 ft | 321 kts | 241° |
| 2026-05-05 13:54 | 40.17290 | -5.33782 | 30720 ft | 322 kts | 242° |
| 2026-05-05 13:54 | 40.15933 | -5.36119 | 30824 ft | 323 kts | 242° |
| 2026-05-05 13:54 | 40.14573 | -5.38459 | 30927 ft | 323 kts | 242° |
| 2026-05-05 13:55 | 40.11842 | -5.43157 | 31095 ft | 325 kts | 242° |
| 2026-05-05 13:55 | 40.09096 | -5.47869 | 31283 ft | 325 kts | 241° |
| 2026-05-05 13:56 | 40.06355 | -5.52566 | 31446 ft | 325 kts | 241° |
| 2026-05-05 13:56 | 40.03614 | -5.57259 | 31582 ft | 328 kts | 241° |
| 2026-05-05 13:57 | 40.00843 | -5.61995 | 31744 ft | 328 kts | 241° |
| 2026-05-05 13:57 | 39.98063 | -5.66739 | 31892 ft | 330 kts | 241° |
| 2026-05-05 13:58 | 39.95268 | -5.71502 | 32030 ft | 331 kts | 240° |
| 2026-05-05 13:58 | 39.92465 | -5.76271 | 32133 ft | 332 kts | 240° |
| 2026-05-05 13:59 | 39.89658 | -5.81040 | 32238 ft | 334 kts | 240° |
| 2026-05-05 13:59 | 39.88240 | -5.83445 | 32301 ft | 335 kts | 240° |
| 2026-05-05 14:00 | 39.85399 | -5.88261 | 32405 ft | 336 kts | 240° |
| 2026-05-05 14:00 | 39.84457 | -5.89855 | 32449 ft | 336 kts | 240° |
| 2026-05-05 14:01 | 39.78655 | -5.99662 | 32651 ft | 338 kts | 240° |
| 2026-05-05 14:01 | 39.75778 | -6.04513 | 32743 ft | 340 kts | 239° |
| 2026-05-05 14:02 | 39.72858 | -6.09437 | 32779 ft | 352 kts | 239° |
| 2026-05-05 14:02 | 39.69801 | -6.14582 | 32902 ft | 363 kts | 239° |
| 2026-05-05 14:03 | 39.66681 | -6.19818 | 33014 ft | 375 kts | 238° |
| 2026-05-05 14:03 | 39.63444 | -6.25239 | 33102 ft | 385 kts | 238° |
| 2026-05-05 14:04 | 39.60017 | -6.30715 | 33200 ft | 396 kts | 236° |
| 2026-05-05 14:04 | 39.56385 | -6.36220 | 33301 ft | 406 kts | 235° |
| 2026-05-05 14:05 | 39.52682 | -6.41826 | 33479 ft | 411 kts | 235° |
| 2026-05-05 14:05 | 39.50826 | -6.44645 | 33741 ft | 410 kts | 235° |
| 2026-05-05 14:05 | 39.48976 | -6.47458 | 34047 ft | 408 kts | 235° |
| 2026-05-05 14:06 | 39.47141 | -6.50252 | 34245 ft | 408 kts | 235° |
| 2026-05-05 14:06 | 39.45298 | -6.53060 | 34356 ft | 410 kts | 235° |
| 2026-05-05 14:06 | 39.43453 | -6.55873 | 34502 ft | 410 kts | 235° |
| 2026-05-05 14:06 | 39.41605 | -6.58689 | 34683 ft | 410 kts | 235° |
| 2026-05-05 14:07 | 39.39756 | -6.61502 | 34851 ft | 411 kts | 234° |
| 2026-05-05 14:07 | 39.37905 | -6.64318 | 34982 ft | 412 kts | 234° |
| 2026-05-05 14:07 | 39.34202 | -6.69941 | 35005 ft | 414 kts | 234° |
| 2026-05-05 14:08 | 39.30478 | -6.75582 | 35003 ft | 411 kts | 234° |
| 2026-05-05 14:08 | 39.26761 | -6.81204 | 35010 ft | 410 kts | 234° |
| 2026-05-05 14:09 | 39.23062 | -6.86791 | 35000 ft | 409 kts | 234° |
| 2026-05-05 14:09 | 39.19370 | -6.92356 | 35008 ft | 408 kts | 234° |
| 2026-05-05 14:10 | 39.15679 | -6.97911 | 35019 ft | 408 kts | 234° |
| 2026-05-05 14:10 | 39.12007 | -7.03427 | 35010 ft | 408 kts | 234° |
| 2026-05-05 14:11 | 39.08303 | -7.08984 | 35021 ft | 409 kts | 234° |
| 2026-05-05 14:11 | 39.04588 | -7.14545 | 35019 ft | 410 kts | 234° |
| 2026-05-05 14:12 | 39.00863 | -7.20111 | 35025 ft | 410 kts | 234° |
| 2026-05-05 14:12 | 38.97129 | -7.25681 | 35022 ft | 411 kts | 234° |
| 2026-05-05 14:13 | 38.93413 | -7.31214 | 35027 ft | 411 kts | 234° |
| 2026-05-05 14:13 | 38.89676 | -7.36768 | 35024 ft | 411 kts | 234° |
| 2026-05-05 14:14 | 38.85936 | -7.42316 | 35020 ft | 410 kts | 234° |
| 2026-05-05 14:14 | 38.82200 | -7.47850 | 35030 ft | 410 kts | 234° |
| 2026-05-05 14:15 | 38.78469 | -7.53366 | 35031 ft | 409 kts | 234° |
| 2026-05-05 14:15 | 38.74733 | -7.58881 | 35031 ft | 409 kts | 234° |
| 2026-05-05 14:16 | 38.71000 | -7.64383 | 35030 ft | 409 kts | 234° |
| 2026-05-05 14:16 | 38.67287 | -7.69844 | 35033 ft | 409 kts | 234° |
| 2026-05-05 14:17 | 38.63553 | -7.75327 | 35038 ft | 408 kts | 234° |
| 2026-05-05 14:17 | 38.59812 | -7.80811 | 35034 ft | 408 kts | 233° |
| 2026-05-05 14:18 | 38.56074 | -7.86282 | 35038 ft | 408 kts | 233° |
| 2026-05-05 14:18 | 38.52349 | -7.91724 | 35046 ft | 409 kts | 233° |
| 2026-05-05 14:19 | 38.48601 | -7.97189 | 35035 ft | 409 kts | 233° |
| 2026-05-05 14:19 | 38.44846 | -8.02656 | 35047 ft | 410 kts | 233° |
| 2026-05-05 14:20 | 38.41086 | -8.08122 | 35044 ft | 410 kts | 233° |
| 2026-05-05 14:20 | 38.37314 | -8.13593 | 35051 ft | 410 kts | 233° |
| 2026-05-05 14:21 | 38.33540 | -8.19060 | 35054 ft | 411 kts | 233° |
| 2026-05-05 14:21 | 38.29784 | -8.24491 | 35053 ft | 411 kts | 233° |
| 2026-05-05 14:22 | 38.25994 | -8.29961 | 35058 ft | 411 kts | 233° |
| 2026-05-05 14:22 | 38.22199 | -8.35430 | 35056 ft | 412 kts | 232° |
| 2026-05-05 14:23 | 38.18404 | -8.40888 | 35063 ft | 412 kts | 232° |
| 2026-05-05 14:23 | 38.14626 | -8.46313 | 35068 ft | 412 kts | 232° |
| 2026-05-05 14:24 | 38.10822 | -8.51768 | 35066 ft | 413 kts | 232° |
| 2026-05-05 14:24 | 38.07005 | -8.57230 | 35069 ft | 413 kts | 232° |
| 2026-05-05 14:25 | 38.03184 | -8.62688 | 35080 ft | 413 kts | 232° |
| 2026-05-05 14:25 | 37.99386 | -8.68106 | 35084 ft | 413 kts | 232° |
| 2026-05-05 14:26 | 37.95555 | -8.73560 | 35098 ft | 414 kts | 232° |
| 2026-05-05 14:26 | 37.91719 | -8.79013 | 35092 ft | 414 kts | 232° |
| 2026-05-05 14:27 | 37.87882 | -8.84458 | 35097 ft | 414 kts | 232° |
| 2026-05-05 14:27 | 37.84038 | -8.89904 | 35101 ft | 415 kts | 232° |
| 2026-05-05 14:28 | 37.80211 | -8.95316 | 35102 ft | 415 kts | 232° |
| 2026-05-05 14:28 | 37.76361 | -9.00752 | 35102 ft | 415 kts | 232° |
| 2026-05-05 14:29 | 37.72501 | -9.06192 | 35106 ft | 415 kts | 231° |
| 2026-05-05 14:29 | 37.68636 | -9.11631 | 35114 ft | 416 kts | 231° |
| 2026-05-05 14:30 | 37.64765 | -9.17069 | 35110 ft | 416 kts | 231° |
| 2026-05-05 14:30 | 37.60912 | -9.22472 | 35110 ft | 417 kts | 231° |
| 2026-05-05 14:31 | 37.57023 | -9.27916 | 35110 ft | 417 kts | 231° |
| 2026-05-05 14:31 | 37.53127 | -9.33362 | 35113 ft | 418 kts | 231° |
| 2026-05-05 14:32 | 37.49228 | -9.38802 | 35115 ft | 419 kts | 231° |
| 2026-05-05 14:32 | 37.45337 | -9.44223 | 35117 ft | 419 kts | 231° |
| 2026-05-05 14:33 | 37.41416 | -9.49675 | 35117 ft | 420 kts | 231° |
| 2026-05-05 14:33 | 37.37482 | -9.55137 | 35119 ft | 421 kts | 231° |
| 2026-05-05 14:34 | 37.33543 | -9.60595 | 35118 ft | 421 kts | 231° |
| 2026-05-05 14:34 | 37.29596 | -9.66056 | 35120 ft | 422 kts | 231° |
| 2026-05-05 14:35 | 37.25641 | -9.71519 | 35121 ft | 423 kts | 231° |
| 2026-05-05 14:35 | 37.21704 | -9.76948 | 35121 ft | 423 kts | 230° |
| 2026-05-05 14:36 | 37.17740 | -9.82406 | 35120 ft | 423 kts | 230° |
| 2026-05-05 14:36 | 37.13768 | -9.87864 | 35128 ft | 424 kts | 230° |
| 2026-05-05 14:37 | 37.09789 | -9.93323 | 35131 ft | 424 kts | 230° |
| 2026-05-05 14:37 | 37.05808 | -9.98776 | 35130 ft | 425 kts | 230° |
| 2026-05-05 14:38 | 37.01817 | -10.04233 | 35125 ft | 425 kts | 230° |
| 2026-05-05 14:38 | 36.97826 | -10.09681 | 35138 ft | 425 kts | 230° |
| 2026-05-05 14:39 | 36.93827 | -10.15131 | 35128 ft | 425 kts | 230° |
| 2026-05-05 14:39 | 36.89824 | -10.20578 | 35134 ft | 425 kts | 230° |
| 2026-05-05 14:40 | 36.85822 | -10.26014 | 35138 ft | 426 kts | 230° |
| 2026-05-05 14:40 | 36.81807 | -10.31458 | 35130 ft | 426 kts | 230° |
| 2026-05-05 14:41 | 36.77793 | -10.36893 | 35133 ft | 426 kts | 230° |
| 2026-05-05 14:41 | 36.73780 | -10.42316 | 35139 ft | 426 kts | 230° |
| 2026-05-05 14:42 | 36.69756 | -10.47745 | 35129 ft | 426 kts | 230° |
| 2026-05-05 14:42 | 36.65730 | -10.53168 | 35138 ft | 426 kts | 230° |
| 2026-05-05 14:43 | 36.61706 | -10.58581 | 35136 ft | 426 kts | 230° |
| 2026-05-05 14:43 | 36.58352 | -10.63084 | 35139 ft | 426 kts | 230° |
| 2026-05-05 14:44 | 36.54317 | -10.68494 | 35136 ft | 426 kts | 230° |
| 2026-05-05 14:44 | 36.50284 | -10.73892 | 35147 ft | 426 kts | 230° |
| 2026-05-05 14:45 | 36.46247 | -10.79287 | 35146 ft | 426 kts | 230° |
| 2026-05-05 14:45 | 36.42208 | -10.84675 | 35146 ft | 426 kts | 230° |
| 2026-05-05 14:46 | 36.38168 | -10.90057 | 35143 ft | 426 kts | 230° |
| 2026-05-05 14:46 | 36.34134 | -10.95422 | 35145 ft | 425 kts | 230° |
| 2026-05-05 14:47 | 36.30098 | -11.00780 | 35145 ft | 425 kts | 230° |
| 2026-05-05 14:47 | 36.26061 | -11.06132 | 35145 ft | 425 kts | 230° |
| 2026-05-05 14:48 | 36.22050 | -11.11439 | 35145 ft | 425 kts | 229° |
| 2026-05-05 14:48 | 36.18011 | -11.16777 | 35147 ft | 425 kts | 229° |
| 2026-05-05 14:49 | 36.13964 | -11.22116 | 35148 ft | 425 kts | 229° |
| 2026-05-05 14:49 | 36.09922 | -11.27439 | 35148 ft | 425 kts | 229° |
| 2026-05-05 14:50 | 36.05871 | -11.32767 | 35145 ft | 425 kts | 229° |
| 2026-05-05 14:50 | 36.01815 | -11.38095 | 35150 ft | 425 kts | 229° |
| 2026-05-05 14:51 | 35.97751 | -11.43416 | 35151 ft | 426 kts | 228° |
| 2026-05-05 14:51 | 35.93139 | -11.48061 | 35156 ft | 430 kts | 218° |
| 2026-05-05 14:52 | 35.88267 | -11.52278 | 35155 ft | 430 kts | 218° |
| 2026-05-05 14:52 | 35.83362 | -11.56534 | 35148 ft | 431 kts | 218° |
| 2026-05-05 14:53 | 35.78470 | -11.60805 | 35149 ft | 431 kts | 218° |
| 2026-05-05 14:53 | 35.73569 | -11.65092 | 35146 ft | 432 kts | 218° |
| 2026-05-05 14:54 | 35.68697 | -11.69352 | 35145 ft | 432 kts | 218° |
| 2026-05-05 14:54 | 35.63792 | -11.73632 | 35147 ft | 432 kts | 218° |
| 2026-05-05 14:55 | 35.58883 | -11.77909 | 35149 ft | 432 kts | 218° |
| 2026-05-05 14:55 | 35.53968 | -11.82185 | 35149 ft | 433 kts | 218° |
| 2026-05-05 14:56 | 35.49048 | -11.86459 | 35146 ft | 433 kts | 218° |
| 2026-05-05 14:56 | 35.44120 | -11.90733 | 35148 ft | 433 kts | 218° |
| 2026-05-05 14:57 | 35.39220 | -11.94976 | 35144 ft | 434 kts | 218° |
| 2026-05-05 14:57 | 35.34288 | -11.99240 | 35144 ft | 434 kts | 218° |
| 2026-05-05 14:58 | 35.29346 | -12.03507 | 35148 ft | 434 kts | 218° |
| 2026-05-05 14:58 | 35.24432 | -12.07743 | 35145 ft | 435 kts | 218° |
| 2026-05-05 14:59 | 35.19481 | -12.12004 | 35143 ft | 435 kts | 218° |
| 2026-05-05 14:59 | 35.14527 | -12.16262 | 35146 ft | 435 kts | 218° |
| 2026-05-05 15:00 | 35.10406 | -12.19798 | 35147 ft | 436 kts | 218° |
| 2026-05-05 15:00 | 35.04598 | -12.24776 | 35142 ft | 436 kts | 218° |
| 2026-05-05 15:01 | 34.99628 | -12.29027 | 35143 ft | 436 kts | 218° |
| 2026-05-05 15:01 | 34.94676 | -12.33257 | 35141 ft | 437 kts | 218° |
| 2026-05-05 15:02 | 34.89701 | -12.37501 | 35142 ft | 437 kts | 218° |
| 2026-05-05 15:02 | 34.84713 | -12.41748 | 35144 ft | 437 kts | 218° |
| 2026-05-05 15:03 | 34.79723 | -12.45992 | 35148 ft | 437 kts | 218° |
| 2026-05-05 15:03 | 34.74726 | -12.50235 | 35142 ft | 438 kts | 217° |
| 2026-05-05 15:04 | 34.69730 | -12.54470 | 35144 ft | 438 kts | 217° |
| 2026-05-05 15:04 | 34.64756 | -12.58682 | 35142 ft | 438 kts | 217° |
| 2026-05-05 15:05 | 34.57228 | -12.65042 | 35144 ft | 439 kts | 217° |
| 2026-05-05 15:06 | 34.52202 | -12.69282 | 35144 ft | 439 kts | 217° |
| 2026-05-05 15:06 | 34.47178 | -12.73513 | 35141 ft | 440 kts | 217° |
| 2026-05-05 15:07 | 34.42155 | -12.77737 | 35141 ft | 440 kts | 217° |
| 2026-05-05 15:07 | 34.37145 | -12.81944 | 35149 ft | 440 kts | 217° |
| 2026-05-05 15:08 | 34.32102 | -12.86173 | 35138 ft | 440 kts | 217° |
| 2026-05-05 15:08 | 34.27058 | -12.90397 | 35140 ft | 441 kts | 217° |
| 2026-05-05 15:09 | 34.22050 | -12.94601 | 35142 ft | 441 kts | 217° |
| 2026-05-05 15:09 | 34.17018 | -12.98844 | 35136 ft | 441 kts | 217° |
| 2026-05-05 15:10 | 34.11987 | -13.03082 | 35137 ft | 441 kts | 217° |
| 2026-05-05 15:10 | 34.06945 | -13.07321 | 35139 ft | 441 kts | 217° |
| 2026-05-05 15:11 | 34.01892 | -13.11561 | 35136 ft | 442 kts | 217° |